Time;durP1;ratioP1;P1;durP2;ratioP2;P2;SDS_P1;SDS_P2;PMS_P1;PMS_P2;Temp;Humidity;BMP_temperature;BMP_pressure;BME280_temperature;BME280_humidity;BME280_pressure;Samples;Min_cycle;Max_cycle;Signal;HPM_P1;HPM_P2
2022/04/03 00:01:58;;;;;;;3.13;1.67;;;6.20;61.80;;;;;;5031330;28;20064;-76
2022/04/03 00:04:24;;;;;;;1.55;1.30;;;6.10;61.70;;;;;;5030586;28;20033;-75
2022/04/03 00:06:50;;;;;;;2.08;1.50;;;6.10;61.80;;;;;;4999577;28;20127;-75
2022/04/03 00:09:16;;;;;;;2.75;1.50;;;6.10;61.80;;;;;;5030776;28;20043;-75
2022/04/03 00:11:42;;;;;;;1.52;1.40;;;6.10;61.80;;;;;;5010025;28;20473;-76
2022/04/03 00:14:08;;;;;;;1.50;1.40;;;6.00;61.80;;;;;;5026279;28;20056;-75
2022/04/03 00:16:35;;;;;;;2.47;1.58;;;6.00;61.80;;;;;;5017683;28;20530;-74
2022/04/03 00:19:01;;;;;;;2.20;1.70;;;6.00;61.80;;;;;;5016603;28;20061;-76
2022/04/03 00:21:26;;;;;;;1.33;1.23;;;6.00;61.80;;;;;;5035776;28;20029;-75
2022/04/03 00:23:52;;;;;;;2.25;1.58;;;5.90;61.80;;;;;;5028537;28;20362;-75
2022/04/03 00:26:18;;;;;;;1.85;1.50;;;5.90;61.90;;;;;;5030155;28;20057;-75
2022/04/03 00:28:44;;;;;;;1.40;1.30;;;5.90;61.90;;;;;;5030843;28;20038;-76
2022/04/03 00:31:12;;;;;;;1.48;1.30;;;5.80;61.90;;;;;;5014842;28;20037;-76
2022/04/03 00:33:39;;;;;;;1.60;1.48;;;5.80;61.90;;;;;;5028547;28;20037;-75
2022/04/03 00:36:05;;;;;;;2.08;1.50;;;5.80;61.90;;;;;;5031980;28;20052;-75
2022/04/03 00:38:31;;;;;;;1.77;1.40;;;5.70;61.90;;;;;;5013164;28;20658;-75
2022/04/03 00:41:00;;;;;;;1.52;1.30;;;5.70;61.90;;;;;;5029087;28;20152;-75
2022/04/03 00:43:25;;;;;;;3.00;1.50;;;5.70;61.90;;;;;;5027747;28;20385;-75
2022/04/03 00:45:53;;;;;;;1.33;1.23;;;5.70;61.90;;;;;;5012745;28;20033;-75
2022/04/03 00:48:19;;;;;;;1.50;1.40;;;5.70;62.00;;;;;;5034990;28;20064;-75
2022/04/03 00:50:45;;;;;;;1.58;1.33;;;5.60;62.60;;;;;;5019634;28;20037;-75
2022/04/03 00:53:11;;;;;;;1.80;1.48;;;5.60;62.00;;;;;;5013542;28;20041;-75
2022/04/03 00:55:41;;;;;;;2.08;1.42;;;5.50;62.00;;;;;;5032396;28;20056;-74
2022/04/03 00:58:09;;;;;;;1.52;1.42;;;5.60;62.00;;;;;;5027855;28;20409;-74
2022/04/03 01:00:35;;;;;;;1.60;1.50;;;5.50;62.00;;;;;;5045331;28;20499;-75
2022/04/03 01:03:02;;;;;;;1.45;1.35;;;5.50;62.00;;;;;;5030507;28;20108;-75
2022/04/03 01:05:28;;;;;;;1.58;1.35;;;5.50;62.10;;;;;;5037534;28;20587;-75
2022/04/03 01:07:54;;;;;;;2.67;1.92;;;5.40;62.00;;;;;;5026224;28;20033;-75
2022/04/03 01:10:20;;;;;;;2.25;1.55;;;5.40;62.10;;;;;;5013340;28;20034;-75
2022/04/03 01:12:45;;;;;;;2.22;1.58;;;5.40;62.10;;;;;;5014041;28;20021;-75
2022/04/03 01:15:17;;;;;;;1.55;1.25;;;5.30;62.10;;;;;;5011014;28;20083;-75
2022/04/03 01:17:43;;;;;;;1.33;1.23;;;5.30;62.10;;;;;;5028856;28;20057;-76
2022/04/03 01:20:10;;;;;;;1.70;1.52;;;5.30;62.10;;;;;;5044839;28;20025;-75
2022/04/03 01:22:37;;;;;;;1.35;1.25;;;5.30;62.10;;;;;;5034430;28;20053;-75
2022/04/03 01:25:04;;;;;;;1.30;1.20;;;5.20;62.10;;;;;;5022176;28;20026;-75
2022/04/03 01:27:30;;;;;;;1.50;1.38;;;5.20;62.10;;;;;;5028802;28;20029;-74
2022/04/03 01:29:57;;;;;;;1.40;1.30;;;5.20;62.10;;;;;;5030334;28;20786;-74
2022/04/03 01:32:24;;;;;;;1.38;1.27;;;5.20;62.10;;;;;;5026051;28;20030;-75
2022/04/03 01:34:50;;;;;;;1.45;1.30;;;5.10;62.20;;;;;;5029334;28;20080;-75
2022/04/03 01:37:15;;;;;;;1.83;1.55;;;5.10;62.20;;;;;;5009817;28;20439;-75
2022/04/03 01:39:41;;;;;;;2.50;1.40;;;5.10;62.20;;;;;;5030680;28;20029;-75
2022/04/03 01:42:07;;;;;;;1.52;1.38;;;5.10;62.20;;;;;;5012384;28;20443;-75
2022/04/03 01:44:33;;;;;;;2.08;1.40;;;5.00;62.20;;;;;;5029125;28;20025;-75
2022/04/03 01:46:59;;;;;;;2.00;1.40;;;5.00;62.20;;;;;;5026388;28;20036;-76
2022/04/03 01:49:25;;;;;;;1.60;1.50;;;5.00;62.20;;;;;;5020451;28;20033;-75
2022/04/03 01:51:50;;;;;;;1.60;1.50;;;5.00;62.20;;;;;;5012474;28;20128;-75
2022/04/03 01:54:16;;;;;;;1.45;1.35;;;4.90;62.20;;;;;;5031096;28;20053;-74
2022/04/03 01:56:44;;;;;;;1.90;1.52;;;4.90;62.30;;;;;;5018961;28;20057;-75
2022/04/03 01:59:10;;;;;;;2.47;1.60;;;4.90;62.40;;;;;;5012188;28;20038;-75
2022/04/03 02:01:36;;;;;;;1.88;1.50;;;4.90;62.30;;;;;;5023193;28;20037;-74
2022/04/03 02:04:03;;;;;;;1.88;1.30;;;4.90;62.30;;;;;;5027385;28;20545;-76
2022/04/03 02:06:30;;;;;;;1.92;1.50;;;4.80;62.30;;;;;;5027330;28;20029;-75
2022/04/03 02:08:57;;;;;;;1.30;1.20;;;4.80;62.30;;;;;;5027229;28;20033;-75
2022/04/03 02:11:23;;;;;;;1.73;1.50;;;4.80;62.40;;;;;;5028027;28;20028;-75
2022/04/03 02:13:50;;;;;;;1.60;1.40;;;4.70;62.30;;;;;;5045790;28;20029;-74
2022/04/03 02:16:16;;;;;;;1.65;1.50;;;4.70;62.40;;;;;;5026549;28;20671;-75
2022/04/03 02:18:42;;;;;;;1.50;1.40;;;4.70;62.40;;;;;;5028066;28;20045;-75
2022/04/03 02:21:08;;;;;;;1.90;1.40;;;4.70;62.40;;;;;;5010534;28;20025;-76
2022/04/03 02:23:34;;;;;;;1.42;1.33;;;4.70;62.40;;;;;;5020365;28;20489;-75
2022/04/03 02:26:00;;;;;;;2.70;1.40;;;4.60;62.40;;;;;;4994329;28;20568;-76
2022/04/03 02:28:26;;;;;;;1.83;1.52;;;4.60;62.40;;;;;;5027105;28;20454;-74
2022/04/03 02:30:51;;;;;;;2.58;1.55;;;4.60;62.40;;;;;;5029735;28;20037;-76
2022/04/03 02:33:17;;;;;;;1.55;1.45;;;4.60;62.40;;;;;;5028300;28;20033;-75
2022/04/03 02:35:43;;;;;;;1.70;1.60;;;4.60;62.50;;;;;;5028209;28;20164;-75
2022/04/03 02:38:09;;;;;;;1.80;1.70;;;4.50;62.50;;;;;;5011175;28;20045;-75
2022/04/03 02:40:35;;;;;;;1.98;1.50;;;4.50;62.40;;;;;;5026552;28;20026;-74
2022/04/03 02:43:01;;;;;;;1.77;1.67;;;4.50;62.50;;;;;;5025653;28;20040;-74
2022/04/03 02:45:27;;;;;;;1.75;1.50;;;4.40;62.40;;;;;;5007596;28;20077;-77
2022/04/03 02:47:54;;;;;;;2.33;1.65;;;4.40;62.40;;;;;;5028065;28;20034;-75
2022/04/03 02:50:25;;;;;;;2.00;1.58;;;4.40;62.50;;;;;;5025997;28;20025;-75
2022/04/03 02:52:52;;;;;;;1.70;1.50;;;4.40;62.50;;;;;;5028313;28;20036;-75
2022/04/03 02:55:19;;;;;;;1.80;1.60;;;4.40;62.50;;;;;;5027654;28;20053;-75
2022/04/03 02:57:45;;;;;;;1.63;1.45;;;4.40;62.60;;;;;;5027567;28;20061;-75
2022/04/03 03:00:15;;;;;;;1.60;1.50;;;4.30;62.50;;;;;;5013380;28;20025;-74
2022/04/03 03:02:42;;;;;;;2.78;1.63;;;4.30;62.50;;;;;;5015721;28;20121;-75
2022/04/03 03:05:08;;;;;;;2.33;1.63;;;4.30;62.60;;;;;;5012095;28;20379;-75
2022/04/03 03:07:38;;;;;;;2.20;1.58;;;4.30;62.60;;;;;;5030528;28;20029;-75
2022/04/03 03:10:09;;;;;;;2.50;1.80;;;4.30;62.60;;;;;;5030704;28;20104;-75
2022/04/03 03:12:35;;;;;;;1.98;1.75;;;4.20;62.60;;;;;;5031066;28;20470;-75
2022/04/03 03:15:04;;;;;;;2.05;1.83;;;4.20;62.60;;;;;;5013029;28;20044;-76
2022/04/03 03:17:30;;;;;;;1.83;1.60;;;4.20;62.70;;;;;;5035303;28;20060;-75
2022/04/03 03:19:56;;;;;;;1.83;1.67;;;4.20;62.70;;;;;;4998143;28;20470;-77
2022/04/03 03:22:22;;;;;;;2.28;1.73;;;4.20;62.70;;;;;;5030302;28;20030;-76
2022/04/03 03:24:48;;;;;;;2.53;1.80;;;4.10;62.70;;;;;;5046572;28;20643;-75
2022/04/03 03:27:14;;;;;;;2.55;1.70;;;4.10;62.70;;;;;;5047603;28;20045;-75
2022/04/03 03:29:39;;;;;;;2.22;1.80;;;4.10;62.70;;;;;;5014641;28;20108;-75
2022/04/03 03:32:06;;;;;;;2.17;1.73;;;4.10;62.80;;;;;;5029459;28;20148;-76
2022/04/03 03:34:34;;;;;;;2.30;1.73;;;4.10;62.80;;;;;;4998718;28;20053;-74
2022/04/03 03:37:01;;;;;;;2.75;1.80;;;4.10;62.90;;;;;;5030788;28;20052;-75
2022/04/03 03:39:27;;;;;;;2.72;2.03;;;4.10;62.90;;;;;;5030777;28;20076;-75
2022/04/03 03:41:55;;;;;;;2.10;1.88;;;4.00;62.80;;;;;;5031289;28;20038;-76
2022/04/03 03:44:24;;;;;;;2.63;1.80;;;4.00;62.90;;;;;;5002810;28;20033;-75
2022/04/03 03:46:50;;;;;;;2.35;1.80;;;4.00;62.90;;;;;;4998343;28;20044;-75
2022/04/03 03:49:16;;;;;;;2.08;1.70;;;4.00;62.90;;;;;;5011726;28;20423;-76
2022/04/03 03:51:42;;;;;;;2.28;1.85;;;4.00;62.90;;;;;;5010457;28;20029;-74
2022/04/03 03:54:08;;;;;;;2.63;1.80;;;4.00;63.00;;;;;;5031219;28;20018;-76
2022/04/03 03:56:34;;;;;;;2.33;2.10;;;4.00;63.00;;;;;;5012237;28;20025;-76
2022/04/03 03:59:00;;;;;;;1.98;1.70;;;3.90;63.00;;;;;;5030580;28;20091;-76
2022/04/03 04:01:27;;;;;;;2.35;1.90;;;4.00;63.00;;;;;;5030100;28;20025;-76
2022/04/03 04:03:52;;;;;;;2.53;1.70;;;4.00;63.00;;;;;;5030527;28;20025;-76
2022/04/03 04:06:18;;;;;;;2.65;1.90;;;4.00;63.10;;;;;;5030390;28;20418;-76
2022/04/03 04:08:44;;;;;;;1.95;1.60;;;4.00;63.10;;;;;;5010323;28;20045;-76
2022/04/03 04:11:10;;;;;;;3.10;2.10;;;3.90;63.10;;;;;;5025710;28;20036;-75
2022/04/03 04:13:36;;;;;;;2.47;2.03;;;3.90;63.10;;;;;;5030271;28;20021;-76
2022/04/03 04:16:02;;;;;;;2.72;1.90;;;3.90;63.10;;;;;;5012274;28;20036;-76
2022/04/03 04:18:28;;;;;;;2.00;1.77;;;3.90;63.10;;;;;;5029666;28;20045;-76
2022/04/03 04:20:54;;;;;;;2.85;1.92;;;3.90;63.10;;;;;;5028852;28;20041;-75
2022/04/03 04:23:20;;;;;;;2.28;1.90;;;3.90;63.10;;;;;;4997386;28;20036;-76
2022/04/03 04:25:46;;;;;;;3.45;1.92;;;3.90;63.20;;;;;;5031165;28;20106;-75
2022/04/03 04:28:12;;;;;;;2.22;1.80;;;3.90;63.20;;;;;;5028847;28;20038;-76
2022/04/03 04:30:39;;;;;;;2.17;1.80;;;3.90;63.30;;;;;;5013629;28;20079;-76
2022/04/03 04:33:08;;;;;;;2.05;1.75;;;3.90;63.30;;;;;;4995910;28;20049;-77
2022/04/03 04:35:35;;;;;;;2.42;1.73;;;3.90;63.30;;;;;;5025985;28;20099;-76
2022/04/03 04:38:04;;;;;;;3.08;2.17;;;3.90;64.00;;;;;;5028857;28;20139;-76
2022/04/03 04:40:31;;;;;;;2.10;1.90;;;3.80;63.30;;;;;;5030837;28;20045;-76
2022/04/03 04:42:58;;;;;;;2.75;1.90;;;3.80;63.30;;;;;;5029267;28;20367;-76
2022/04/03 04:45:25;;;;;;;2.38;1.80;;;3.90;63.40;;;;;;5029181;28;20560;-76
2022/04/03 04:47:59;;;;;;;2.70;2.10;;;3.80;63.40;;;;;;5029526;28;20040;-75
2022/04/03 04:50:26;;;;;;;2.25;1.92;;;3.80;63.40;;;;;;5030697;28;20112;-75
2022/04/03 04:52:52;;;;;;;2.67;1.95;;;3.80;63.40;;;;;;5029588;28;20026;-76
2022/04/03 04:55:19;;;;;;;2.42;1.98;;;3.80;63.40;;;;;;5008243;28;20501;-76
2022/04/03 04:57:56;;;;;;;3.20;1.92;;;3.80;63.50;;;;;;5038183;28;20080;-75
2022/04/03 05:00:25;;;;;;;2.20;2.00;;;3.80;63.50;;;;;;5044673;28;20112;-76
2022/04/03 05:02:51;;;;;;;3.22;2.00;;;3.80;63.50;;;;;;5012239;28;20037;-76
2022/04/03 05:05:18;;;;;;;2.30;1.77;;;3.80;63.60;;;;;;5028191;28;20136;-76
2022/04/03 05:07:45;;;;;;;2.55;2.00;;;3.80;63.60;;;;;;5044753;28;20113;-77
2022/04/03 05:10:16;;;;;;;2.90;2.22;;;3.80;63.60;;;;;;5029272;28;20055;-76
2022/04/03 05:12:43;;;;;;;2.97;2.00;;;3.80;63.60;;;;;;5028324;28;20037;-75
2022/04/03 05:15:12;;;;;;;3.35;1.88;;;3.80;63.70;;;;;;5044293;28;20056;-76
2022/04/03 05:17:42;;;;;;;2.15;1.75;;;3.80;63.70;;;;;;5015748;28;20124;-76
2022/04/03 05:20:13;;;;;;;2.33;1.70;;;3.80;63.70;;;;;;4991899;28;20029;-75
2022/04/03 05:22:41;;;;;;;2.70;1.90;;;3.80;63.70;;;;;;5025754;28;20021;-75
2022/04/03 05:25:08;;;;;;;2.25;1.80;;;3.90;63.80;;;;;;5013296;28;20037;-75
2022/04/03 05:27:34;;;;;;;2.45;2.10;;;3.80;63.70;;;;;;5009387;28;20112;-76
2022/04/03 05:30:01;;;;;;;3.05;2.10;;;3.90;63.80;;;;;;5028940;28;20109;-76
2022/04/03 05:32:28;;;;;;;2.30;1.70;;;3.90;63.80;;;;;;5029109;28;20029;-76
2022/04/03 05:34:55;;;;;;;2.20;1.83;;;3.90;63.80;;;;;;5029888;28;20462;-76
2022/04/03 05:37:21;;;;;;;2.97;1.90;;;3.90;63.90;;;;;;5027184;28;20509;-76
2022/04/03 05:39:47;;;;;;;3.03;1.85;;;3.90;63.90;;;;;;5026237;28;20398;-75
2022/04/03 05:42:13;;;;;;;1.73;1.63;;;3.90;63.90;;;;;;5011123;28;20087;-76
2022/04/03 05:44:39;;;;;;;2.38;1.80;;;3.90;63.90;;;;;;5028769;28;20071;-76
2022/04/03 05:47:05;;;;;;;3.88;1.80;;;3.90;63.90;;;;;;5027308;28;20065;-76
2022/04/03 05:49:31;;;;;;;2.33;1.90;;;3.90;63.90;;;;;;5011752;28;20021;-76
2022/04/03 05:51:57;;;;;;;2.10;1.88;;;3.90;64.00;;;;;;5027683;28;20371;-75
2022/04/03 05:54:22;;;;;;;2.17;1.88;;;3.90;64.00;;;;;;5045167;28;20876;-76
2022/04/03 05:56:48;;;;;;;1.88;1.70;;;3.90;64.00;;;;;;5028613;28;20139;-76
2022/04/03 05:59:15;;;;;;;2.50;2.10;;;3.90;64.00;;;;;;5028353;28;20088;-76
2022/04/03 06:01:41;;;;;;;2.05;1.80;;;3.90;64.00;;;;;;5029396;28;20025;-75
2022/04/03 06:04:07;;;;;;;1.77;1.67;;;3.90;64.00;;;;;;5027585;28;20021;-76
2022/04/03 06:06:33;;;;;;;3.28;1.90;;;3.90;64.00;;;;;;5004382;28;20037;-77
2022/04/03 06:08:58;;;;;;;2.58;1.83;;;4.00;64.10;;;;;;4991944;28;20105;-76
2022/04/03 06:11:24;;;;;;;1.80;1.70;;;4.00;64.10;;;;;;5016325;28;20030;-76
2022/04/03 06:13:50;;;;;;;2.50;1.77;;;4.00;64.10;;;;;;5012453;28;20140;-76
2022/04/03 06:16:16;;;;;;;1.70;1.60;;;4.00;64.10;;;;;;5044211;28;20040;-76
2022/04/03 06:18:42;;;;;;;2.65;1.98;;;4.00;64.20;;;;;;5025541;28;20052;-76
2022/04/03 06:21:09;;;;;;;2.97;2.00;;;4.00;64.20;;;;;;4994395;28;20124;-76
2022/04/03 06:23:35;;;;;;;2.10;1.80;;;4.00;64.20;;;;;;5011531;28;20028;-76
2022/04/03 06:26:02;;;;;;;1.92;1.70;;;4.00;64.20;;;;;;5027794;28;20034;-76
2022/04/03 06:28:28;;;;;;;2.55;1.85;;;4.00;64.20;;;;;;5024680;28;20037;-75
2022/04/03 06:30:55;;;;;;;2.35;1.70;;;4.10;64.30;;;;;;5027094;28;20037;-76
2022/04/03 06:33:21;;;;;;;2.47;1.77;;;4.10;64.30;;;;;;5012278;28;20385;-75
2022/04/03 06:35:47;;;;;;;2.30;1.65;;;4.10;64.30;;;;;;5032178;28;20379;-76
2022/04/03 06:38:14;;;;;;;2.38;1.73;;;4.10;64.30;;;;;;5031503;28;20064;-76
2022/04/03 06:40:51;;;;;;;1.88;1.67;;;4.10;64.40;;;;;;5015446;28;20159;-75
2022/04/03 06:43:19;;;;;;;2.70;2.00;;;4.10;64.40;;;;;;5027271;28;20045;-75
2022/04/03 06:45:44;;;;;;;3.25;2.03;;;4.10;64.40;;;;;;5029651;28;20603;-74
2022/04/03 06:48:10;;;;;;;2.20;1.88;;;4.10;64.30;;;;;;5014844;28;20041;-76
2022/04/03 06:50:36;;;;;;;1.98;1.73;;;4.10;64.30;;;;;;5016412;28;20377;-75
2022/04/03 06:53:04;;;;;;;2.03;1.80;;;4.10;64.30;;;;;;5030535;28;20034;-78
2022/04/03 06:55:29;;;;;;;2.42;1.85;;;4.20;64.40;;;;;;5013926;28;20112;-75
2022/04/03 06:57:56;;;;;;;2.42;1.90;;;4.20;64.40;;;;;;5031824;28;20136;-75
2022/04/03 07:00:22;;;;;;;1.55;1.45;;;4.20;64.40;;;;;;5014128;28;20029;-76
2022/04/03 07:02:49;;;;;;;2.67;2.05;;;4.20;64.40;;;;;;5031453;28;20041;-75
2022/04/03 07:05:15;;;;;;;2.40;1.90;;;4.20;64.40;;;;;;5014232;28;20120;-76
2022/04/03 07:07:41;;;;;;;2.42;2.05;;;4.20;64.40;;;;;;5032267;28;20502;-75
2022/04/03 07:10:08;;;;;;;3.47;2.03;;;4.20;64.40;;;;;;5031656;28;20031;-75
2022/04/03 07:12:34;;;;;;;1.98;1.70;;;4.20;64.40;;;;;;5011420;28;20034;-76
2022/04/03 07:14:59;;;;;;;2.15;1.80;;;4.20;64.40;;;;;;5046848;28;20452;-76
2022/04/03 07:17:25;;;;;;;2.25;1.85;;;4.20;64.40;;;;;;5014767;28;20064;-75
2022/04/03 07:19:51;;;;;;;2.42;1.90;;;4.20;64.40;;;;;;5032005;28;20021;-75
2022/04/03 07:22:17;;;;;;;2.55;2.08;;;4.20;64.50;;;;;;5036311;28;20409;-75
2022/04/03 07:24:43;;;;;;;2.65;1.85;;;4.20;64.40;;;;;;5014012;28;20029;-75
2022/04/03 07:27:09;;;;;;;2.65;1.92;;;4.20;64.40;;;;;;5031649;28;20091;-75
2022/04/03 07:29:34;;;;;;;2.88;2.00;;;4.20;64.50;;;;;;5049186;28;20187;-75
2022/04/03 07:32:00;;;;;;;2.40;1.80;;;4.30;64.50;;;;;;5012648;28;20033;-75
2022/04/03 07:34:26;;;;;;;3.83;2.03;;;4.30;64.50;;;;;;5028805;28;20064;-77
2022/04/03 07:36:52;;;;;;;2.40;1.95;;;4.30;64.60;;;;;;5031572;28;20041;-76
2022/04/03 07:39:18;;;;;;;2.85;2.05;;;4.30;64.60;;;;;;5014557;28;20044;-75
2022/04/03 07:41:44;;;;;;;2.80;2.05;;;4.30;64.50;;;;;;5031594;28;20064;-75
2022/04/03 07:44:11;;;;;;;2.88;2.20;;;4.30;64.60;;;;;;5014513;28;20055;-75
2022/04/03 07:46:37;;;;;;;3.97;2.00;;;4.30;64.60;;;;;;5010243;28;20030;-74
2022/04/03 07:49:04;;;;;;;2.40;1.90;;;4.30;64.60;;;;;;5031246;28;20030;-74
2022/04/03 07:51:30;;;;;;;2.95;2.03;;;4.30;64.60;;;;;;5030900;28;20021;-73
2022/04/03 07:53:57;;;;;;;3.53;1.95;;;4.30;64.60;;;;;;5014173;28;20497;-76
2022/04/03 07:56:22;;;;;;;2.63;2.13;;;4.40;64.60;;;;;;5015117;28;20053;-76
2022/04/03 07:58:49;;;;;;;2.72;1.98;;;4.40;64.60;;;;;;5022719;28;20087;-76
2022/04/03 08:01:14;;;;;;;2.03;1.70;;;4.30;64.60;;;;;;5029899;28;20025;-76
2022/04/03 08:03:40;;;;;;;1.83;1.73;;;4.40;64.70;;;;;;5029824;28;20091;-76
2022/04/03 08:06:06;;;;;;;2.25;1.90;;;4.40;64.70;;;;;;5030100;28;20053;-76
2022/04/03 08:08:32;;;;;;;2.53;1.75;;;4.40;64.80;;;;;;5030787;28;20034;-74
2022/04/03 08:10:58;;;;;;;3.03;2.10;;;4.40;64.80;;;;;;5014253;28;20069;-74
2022/04/03 08:13:24;;;;;;;2.42;1.90;;;4.40;64.80;;;;;;5001442;28;20060;-76
2022/04/03 08:15:50;;;;;;;2.45;1.80;;;4.50;64.90;;;;;;5023415;28;20107;-74
2022/04/03 08:18:16;;;;;;;3.72;2.28;;;4.50;64.90;;;;;;5003457;28;20061;-76
2022/04/03 08:20:43;;;;;;;2.83;2.20;;;4.50;64.90;;;;;;5023300;28;20063;-74
2022/04/03 08:23:09;;;;;;;2.63;1.80;;;4.50;64.90;;;;;;5014364;28;20434;-75
2022/04/03 08:25:36;;;;;;;2.92;1.90;;;4.50;64.90;;;;;;5029879;28;20036;-75
2022/04/03 08:28:02;;;;;;;2.65;2.05;;;4.60;65.00;;;;;;5029099;28;20122;-77
2022/04/03 08:30:31;;;;;;;1.98;1.70;;;4.60;65.00;;;;;;5033652;28;20360;-74
2022/04/03 08:32:58;;;;;;;2.65;2.03;;;4.60;65.00;;;;;;5046599;28;20025;-75
2022/04/03 08:35:26;;;;;;;2.88;1.90;;;4.60;65.00;;;;;;5040608;28;20042;-75
2022/04/03 08:37:53;;;;;;;3.20;2.10;;;4.70;65.10;;;;;;5030701;28;20042;-74
2022/04/03 08:40:23;;;;;;;3.20;2.00;;;4.70;65.20;;;;;;5010418;28;20100;-75
2022/04/03 08:42:51;;;;;;;2.95;1.90;;;4.70;65.20;;;;;;5020958;28;20141;-74
2022/04/03 08:45:16;;;;;;;2.35;1.88;;;4.70;65.20;;;;;;5013254;28;20021;-76
2022/04/03 08:47:44;;;;;;;1.73;1.60;;;4.80;65.80;;;;;;5029955;28;20371;-74
2022/04/03 08:50:12;;;;;;;2.38;1.80;;;4.80;65.20;;;;;;5042350;28;20034;-74
2022/04/03 08:52:39;;;;;;;2.50;1.90;;;4.90;65.20;;;;;;5029171;28;20049;-75
2022/04/03 08:55:05;;;;;;;2.10;1.90;;;4.90;65.20;;;;;;5030524;28;20652;-75
2022/04/03 08:57:32;;;;;;;2.20;1.67;;;5.00;65.20;;;;;;5010267;28;20068;-73
2022/04/03 08:59:58;;;;;;;4.00;2.00;;;5.10;65.30;;;;;;5028375;28;20029;-73
2022/04/03 09:02:24;;;;;;;2.38;2.00;;;5.10;65.30;;;;;;5013181;28;20589;-75
2022/04/03 09:04:50;;;;;;;2.50;1.77;;;5.20;65.30;;;;;;4996587;28;20164;-77
2022/04/03 09:07:19;;;;;;;2.35;1.63;;;5.20;65.20;;;;;;5031754;28;20120;-74
2022/04/03 09:09:55;;;;;;;2.47;1.70;;;5.30;65.30;;;;;;5028658;28;20018;-74
2022/04/03 09:12:20;;;;;;;2.33;2.13;;;5.40;65.30;;;;;;5030372;28;20037;-74
2022/04/03 09:14:50;;;;;;;1.92;1.63;;;5.40;65.10;;;;;;5030121;28;20055;-74
2022/04/03 09:17:38;;;;;;;2.47;1.83;;;5.60;65.20;;;;;;5009747;28;20030;-75
2022/04/03 09:20:16;;;;;;;1.70;1.60;;;5.60;65.20;;;;;;5028447;28;21611;-75
2022/04/03 09:22:45;;;;;;;2.00;1.77;;;5.70;65.10;;;;;;5027638;28;20033;-73
2022/04/03 09:25:13;;;;;;;2.45;1.90;;;5.80;65.00;;;;;;5029193;28;20025;-74
2022/04/03 09:27:53;;;;;;;2.45;1.70;;;5.90;65.00;;;;;;5012987;28;20095;-73
2022/04/03 09:30:22;;;;;;;3.38;2.00;;;6.00;65.00;;;;;;5013872;28;20526;-73
2022/04/03 09:32:56;;;;;;;2.13;1.60;;;6.00;64.90;;;;;;5030632;28;20034;-74
2022/04/03 09:35:26;;;;;;;2.10;1.90;;;6.10;64.90;;;;;;5063745;28;20033;-74
2022/04/03 09:38:06;;;;;;;1.67;1.50;;;6.20;64.90;;;;;;5037186;28;20029;-74
2022/04/03 09:40:33;;;;;;;2.28;1.67;;;6.30;64.90;;;;;;5018920;28;20038;-73
2022/04/03 09:43:19;;;;;;;1.90;1.55;;;6.40;64.90;;;;;;5013375;28;20028;-76
2022/04/03 09:46:06;;;;;;;2.63;2.00;;;6.50;65.20;;;;;;5028637;28;20108;-75
2022/04/03 09:48:36;;;;;;;2.28;1.95;;;6.60;65.00;;;;;;5027431;28;20587;-75
2022/04/03 09:51:06;;;;;;;2.40;1.67;;;6.70;64.90;;;;;;5001242;28;20470;-75
2022/04/03 09:53:48;;;;;;;1.90;1.60;;;6.80;64.90;;;;;;5027365;28;20022;-75
2022/04/03 09:56:31;;;;;;;1.92;1.65;;;6.90;65.00;;;;;;5029161;28;20497;-75
2022/04/03 09:58:57;;;;;;;1.85;1.65;;;7.00;65.00;;;;;;5028374;28;20067;-75
2022/04/03 10:01:30;;;;;;;1.65;1.48;;;7.10;65.00;;;;;;5029924;28;20026;-75
2022/04/03 10:04:00;;;;;;;2.10;1.60;;;7.20;65.00;;;;;;5012275;28;20064;-75
2022/04/03 10:06:27;;;;;;;1.60;1.50;;;7.20;65.00;;;;;;5030568;28;20035;-76
2022/04/03 10:08:53;;;;;;;2.35;1.48;;;7.30;64.90;;;;;;5028361;28;20075;-76
2022/04/03 10:11:20;;;;;;;1.70;1.52;;;7.40;64.70;;;;;;5012775;28;20137;-76
2022/04/03 10:13:47;;;;;;;1.38;1.27;;;7.40;64.60;;;;;;5011307;28;20045;-75
2022/04/03 10:16:14;;;;;;;1.30;1.20;;;7.50;64.70;;;;;;5027489;28;20037;-76
2022/04/03 10:18:45;;;;;;;1.30;1.20;;;7.50;64.70;;;;;;5026455;28;20080;-76
2022/04/03 10:21:19;;;;;;;1.42;1.17;;;7.60;64.70;;;;;;5012314;28;20065;-75
2022/04/03 10:23:46;;;;;;;1.30;1.20;;;7.70;64.70;;;;;;5012001;28;20026;-75
2022/04/03 10:26:17;;;;;;;1.20;1.10;;;7.80;64.70;;;;;;5029209;28;20052;-75
2022/04/03 10:28:52;;;;;;;1.75;1.10;;;7.90;64.80;;;;;;5042068;28;20037;-74
2022/04/03 10:31:18;;;;;;;;;;;8.00;65.00;;;;;;5028176;28;20025;-75
2022/04/03 10:33:48;;;;;;;1.73;1.00;;;8.10;64.80;;;;;;5040905;28;19935;-74
2022/04/03 10:36:17;;;;;;;1.33;1.00;;;8.10;64.60;;;;;;5039386;28;20036;-75
2022/04/03 10:38:57;;;;;;;1.02;1.02;;;8.20;64.70;;;;;;5016117;28;20083;-74
2022/04/03 10:41:36;;;;;;;1.30;1.10;;;8.20;64.80;;;;;;5020245;28;20030;-75
2022/04/03 10:44:21;;;;;;;3.08;1.00;;;8.30;64.80;;;;;;5031492;28;20026;-75
2022/04/03 10:47:02;;;;;;;1.48;1.25;;;8.30;64.80;;;;;;5028612;28;20037;-75
2022/04/03 10:49:37;;;;;;;1.20;1.20;;;8.30;64.90;;;;;;5024068;28;20037;-75
2022/04/03 10:52:04;;;;;;;1.17;1.08;;;8.40;64.90;;;;;;5029639;28;20025;-75
2022/04/03 10:54:31;;;;;;;1.13;1.00;;;8.40;64.90;;;;;;5026195;28;20088;-75
2022/04/03 10:57:31;;;;;;;1.23;1.10;;;8.40;64.90;;;;;;5041095;28;20112;-76
2022/04/03 11:00:12;;;;;;;0.95;0.93;;;8.50;65.10;;;;;;5027563;28;20041;-74
2022/04/03 11:02:52;;;;;;;1.33;1.13;;;8.50;65.00;;;;;;5029366;28;20112;-75
2022/04/03 11:05:27;;;;;;;2.05;1.05;;;8.50;65.10;;;;;;5028536;28;20041;-76
2022/04/03 11:07:58;;;;;;;1.00;1.00;;;8.60;65.70;;;;;;5028174;28;20033;-76
2022/04/03 11:11:06;;;;;;;1.73;1.17;;;8.60;65.00;;;;;;5028087;28;20056;-76
2022/04/03 11:13:35;;;;;;;0.90;0.90;;;8.70;65.10;;;;;;5004669;28;20036;-76
2022/04/03 11:16:12;;;;;;;1.95;1.20;;;8.70;65.00;;;;;;5044154;28;20044;-74
2022/04/03 11:18:41;;;;;;;0.90;0.90;;;8.70;65.10;;;;;;5023489;28;20099;-74
2022/04/03 11:21:23;;;;;;;1.48;1.13;;;8.80;65.10;;;;;;5012879;28;20029;-75
2022/04/03 11:23:49;;;;;;;1.23;1.15;;;8.80;65.10;;;;;;5030931;28;20056;-75
2022/04/03 11:26:16;;;;;;;1.50;1.00;;;8.80;65.00;;;;;;5031662;28;20025;-74
2022/04/03 11:28:43;;;;;;;1.05;0.95;;;8.90;65.00;;;;;;5031042;28;20084;-74
2022/04/03 11:31:10;;;;;;;1.20;1.10;;;8.90;65.00;;;;;;5010767;28;20025;-74
2022/04/03 11:33:36;;;;;;;1.00;1.00;;;8.90;64.90;;;;;;5003172;28;20026;-75
2022/04/03 11:36:05;;;;;;;1.15;1.05;;;9.00;65.00;;;;;;5030965;28;20124;-74
2022/04/03 11:38:38;;;;;;;0.88;0.88;;;9.00;64.90;;;;;;5031541;28;20037;-76
2022/04/03 11:41:14;;;;;;;1.00;1.00;;;9.00;65.00;;;;;;5031901;28;20033;-76
2022/04/03 11:43:41;;;;;;;1.30;1.20;;;9.10;64.90;;;;;;5031145;28;20036;-75
2022/04/03 11:46:07;;;;;;;1.10;0.88;;;9.10;64.80;;;;;;5031305;28;20060;-73
2022/04/03 11:48:51;;;;;;;1.20;1.10;;;9.10;64.90;;;;;;5030403;28;20037;-73
2022/04/03 11:51:19;;;;;;;1.58;1.00;;;9.20;64.90;;;;;;5032735;28;20034;-73
2022/04/03 11:53:49;;;;;;;1.13;1.00;;;9.20;64.80;;;;;;5030683;28;20014;-73
2022/04/03 11:56:18;;;;;;;0.98;0.98;;;9.20;64.80;;;;;;5031224;28;20030;-72
2022/04/03 11:58:45;;;;;;;1.00;1.00;;;9.20;64.80;;;;;;5025485;28;20032;-77
2022/04/03 12:01:11;;;;;;;1.30;1.20;;;9.30;64.90;;;;;;5011462;28;20034;-73
2022/04/03 12:03:38;;;;;;;1.00;1.00;;;9.30;64.80;;;;;;5032126;28;20033;-73
2022/04/03 12:06:18;;;;;;;1.50;1.10;;;9.30;64.80;;;;;;5027231;28;20124;-74
2022/04/03 12:08:49;;;;;;;1.30;1.20;;;9.40;64.90;;;;;;5042250;28;20055;-73
2022/04/03 12:11:29;;;;;;;1.65;1.02;;;9.40;64.80;;;;;;5038251;28;20043;-73
2022/04/03 12:14:00;;;;;;;1.00;1.00;;;9.40;64.80;;;;;;5051287;28;20033;-73
2022/04/03 12:16:31;;;;;;;1.13;1.02;;;9.40;64.70;;;;;;5031412;28;20033;-73
2022/04/03 12:18:58;;;;;;;1.75;1.08;;;9.50;64.80;;;;;;5024725;28;20050;-74
2022/04/03 12:21:45;;;;;;;1.02;1.00;;;9.50;64.70;;;;;;5037955;28;20059;-73
2022/04/03 12:24:15;;;;;;;1.20;1.10;;;9.50;64.70;;;;;;5034849;28;20036;-75
2022/04/03 12:27:16;;;;;;;1.00;1.00;;;9.60;64.70;;;;;;5030001;28;20053;-74
2022/04/03 12:29:49;;;;;;;1.00;1.00;;;9.60;64.70;;;;;;5010640;28;20028;-74
2022/04/03 12:32:18;;;;;;;0.90;0.90;;;9.70;64.70;;;;;;5012369;28;20029;-75
2022/04/03 12:34:46;;;;;;;1.23;1.00;;;9.70;64.70;;;;;;5030265;28;20105;-74
2022/04/03 12:37:14;;;;;;;1.13;1.10;;;9.70;64.70;;;;;;5029931;28;20041;-75
2022/04/03 12:39:52;;;;;;;1.02;1.02;;;9.70;64.70;;;;;;5013846;28;20087;-74
2022/04/03 12:42:25;;;;;;;1.30;1.20;;;9.70;64.70;;;;;;5030506;28;20776;-75
2022/04/03 12:44:54;;;;;;;1.30;1.25;;;9.80;64.70;;;;;;5029987;28;20505;-74
2022/04/03 12:47:23;;;;;;;1.30;1.20;;;9.80;64.70;;;;;;5030004;28;20087;-75
2022/04/03 12:50:07;;;;;;;1.27;1.20;;;9.80;64.70;;;;;;5031438;28;20669;-76
2022/04/03 12:52:42;;;;;;;1.23;1.13;;;9.80;64.70;;;;;;4997250;28;20083;-75
2022/04/03 12:55:26;;;;;;;1.13;1.10;;;9.80;64.60;;;;;;5031562;28;20033;-75
2022/04/03 13:00:57;;;;;;;3.25;1.10;;;9.90;64.70;;;;;;5031482;28;20485;-75
2022/04/03 13:03:32;;;;;;;1.40;1.30;;;9.90;64.70;;;;;;5029468;28;20394;-75
2022/04/03 13:06:02;;;;;;;1.65;1.13;;;9.90;64.70;;;;;;5030998;28;20029;-75
2022/04/03 13:08:39;;;;;;;1.42;1.33;;;9.90;64.80;;;;;;5029649;28;20030;-75